Terminal Aerodrome Forecast
Issued by NWS Mt. Holly, NJ

Home | Current Version | Previous Version | Text Only | Print | Product List | Glossary On
Versions: 1 2 3 4 5 6 7 8 9 10 11 12 13 14 15 16 17 18 19 20 21 22 23
497
FTUS41 KPHI 021859 AAA
TAFACY
TAF AMD
KACY 021859Z 0219/0318 VRB03KT P6SM OVC010
     FM030000 17005KT 4SM -SHRA BR OVC005
     FM030400 12004KT 2SM SHRA BR OVC002
     FM031000 11009KT 1/2SM -SHRA FG OVC001
     FM031400 32009KT 2SM -DZ BR OVC004=

USA.gov is the U.S. government's official web portal to all federal, state and local government web resources and services.